EWG1098 EDDS-EDDK
Flight info
| Callsign | EWG1098 |
|---|---|
| Flight time | 0h 34m |
| Altitude | 22000 |
| Route | TAGIK4B/25 TAGIK Z3 VATAK T840 GULKO GULKO1B |
| Aircraft | A320/M-SDE3FGHIRWY/LB1 |
Departure
| Time | 2026-05-06 20:05 |
|---|---|
| Airport | Stuttgart Airport (EDDS) |
Arrival
| Time | 2026-05-06 20:40 |
|---|---|
| Airport | Cologne Bonn Airport (EDDK) |
| Time | Latitude | Longitude | Altitude | Speed | Heading |
|---|---|---|---|---|---|
| 2026-05-06 19:18 | 48.68883 | 9.19359 | 1288 ft | 0 kts | 345° |
| 2026-05-06 19:51 | 48.68882 | 9.19360 | 1285 ft | 2 kts | 345° |
| 2026-05-06 19:51 | 48.68857 | 9.19369 | 1287 ft | 4 kts | 350° |
| 2026-05-06 19:51 | 48.68830 | 9.19373 | 1289 ft | 4 kts | 3° |
| 2026-05-06 19:51 | 48.68806 | 9.19365 | 1289 ft | 4 kts | 43° |
| 2026-05-06 19:52 | 48.68798 | 9.19348 | 1287 ft | 1 kts | 73° |
| 2026-05-06 19:52 | 48.68797 | 9.19346 | 1287 ft | 0 kts | 73° |
| 2026-05-06 19:55 | 48.68804 | 9.19377 | 1290 ft | 9 kts | 73° |
| 2026-05-06 19:55 | 48.68822 | 9.19468 | 1287 ft | 8 kts | 73° |
| 2026-05-06 19:55 | 48.68840 | 9.19563 | 1287 ft | 16 kts | 73° |
| 2026-05-06 19:56 | 48.68872 | 9.19733 | 1286 ft | 15 kts | 74° |
| 2026-05-06 19:56 | 48.68881 | 9.19861 | 1285 ft | 11 kts | 128° |
| 2026-05-06 19:56 | 48.68823 | 9.19930 | 1293 ft | 13 kts | 107° |
| 2026-05-06 19:56 | 48.68845 | 9.20072 | 1285 ft | 19 kts | 73° |
| 2026-05-06 19:57 | 48.68888 | 9.20296 | 1285 ft | 23 kts | 74° |
| 2026-05-06 19:57 | 48.68933 | 9.20536 | 1285 ft | 24 kts | 74° |
| 2026-05-06 19:57 | 48.68981 | 9.20787 | 1288 ft | 25 kts | 74° |
| 2026-05-06 19:57 | 48.69029 | 9.21048 | 1285 ft | 26 kts | 74° |
| 2026-05-06 19:58 | 48.69082 | 9.21315 | 1287 ft | 27 kts | 73° |
| 2026-05-06 19:58 | 48.69135 | 9.21595 | 1290 ft | 28 kts | 74° |
| 2026-05-06 19:58 | 48.69188 | 9.21882 | 1285 ft | 29 kts | 75° |
| 2026-05-06 19:58 | 48.69243 | 9.22171 | 1287 ft | 29 kts | 74° |
| 2026-05-06 19:59 | 48.69298 | 9.22465 | 1288 ft | 29 kts | 74° |
| 2026-05-06 19:59 | 48.69354 | 9.22758 | 1288 ft | 27 kts | 74° |
| 2026-05-06 19:59 | 48.69406 | 9.23038 | 1285 ft | 28 kts | 74° |
| 2026-05-06 19:59 | 48.69462 | 9.23324 | 1286 ft | 29 kts | 73° |
| 2026-05-06 20:00 | 48.69511 | 9.23573 | 1288 ft | 16 kts | 74° |
| 2026-05-06 20:00 | 48.69540 | 9.23728 | 1288 ft | 15 kts | 74° |
| 2026-05-06 20:00 | 48.69575 | 9.23913 | 1286 ft | 21 kts | 74° |
| 2026-05-06 20:00 | 48.69611 | 9.24116 | 1288 ft | 18 kts | 84° |
| 2026-05-06 20:01 | 48.69557 | 9.24284 | 1285 ft | 18 kts | 146° |
| 2026-05-06 20:01 | 48.69497 | 9.24317 | 1286 ft | 0 kts | 165° |
| 2026-05-06 20:03 | 48.69494 | 9.24318 | 1286 ft | 4 kts | 165° |
| 2026-05-06 20:03 | 48.69426 | 9.24346 | 1286 ft | 11 kts | 165° |
| 2026-05-06 20:04 | 48.69387 | 9.24303 | 1288 ft | 6 kts | 254° |
| 2026-05-06 20:04 | 48.69387 | 9.24302 | 1288 ft | 0 kts | 254° |
| 2026-05-06 20:05 | 48.69369 | 9.24213 | 1286 ft | 33 kts | 253° |
| 2026-05-06 20:05 | 48.69235 | 9.23504 | 1286 ft | 104 kts | 254° |
| 2026-05-06 20:05 | 48.68987 | 9.22205 | 1334 ft | 150 kts | 253° |
| 2026-05-06 20:05 | 48.68707 | 9.20654 | 1959 ft | 153 kts | 253° |
| 2026-05-06 20:06 | 48.68405 | 9.19041 | 2462 ft | 168 kts | 252° |
| 2026-05-06 20:06 | 48.68052 | 9.17231 | 2719 ft | 191 kts | 252° |
| 2026-05-06 20:06 | 48.67647 | 9.15180 | 3041 ft | 216 kts | 253° |
| 2026-05-06 20:06 | 48.67204 | 9.12958 | 3823 ft | 222 kts | 253° |
| 2026-05-06 20:07 | 48.67019 | 9.10641 | 4669 ft | 229 kts | 279° |
| 2026-05-06 20:07 | 48.67698 | 9.08449 | 4948 ft | 233 kts | 303° |
| 2026-05-06 20:07 | 48.68823 | 9.06692 | 5023 ft | 237 kts | 325° |
| 2026-05-06 20:07 | 48.70445 | 9.05809 | 5037 ft | 259 kts | 341° |
| 2026-05-06 20:08 | 48.72199 | 9.05063 | 5036 ft | 263 kts | 339° |
| 2026-05-06 20:08 | 48.73946 | 9.04230 | 5035 ft | 264 kts | 338° |
| 2026-05-06 20:08 | 48.75692 | 9.03355 | 5029 ft | 264 kts | 338° |
| 2026-05-06 20:08 | 48.77433 | 9.02461 | 5091 ft | 267 kts | 338° |
| 2026-05-06 20:09 | 48.79202 | 9.01549 | 5965 ft | 268 kts | 338° |
| 2026-05-06 20:09 | 48.80962 | 9.00570 | 6844 ft | 271 kts | 336° |
| 2026-05-06 20:09 | 48.82734 | 8.99522 | 7671 ft | 276 kts | 336° |
| 2026-05-06 20:09 | 48.84511 | 8.98450 | 8481 ft | 281 kts | 336° |
| 2026-05-06 20:10 | 48.86344 | 8.97340 | 9300 ft | 286 kts | 336° |
| 2026-05-06 20:10 | 48.88208 | 8.96216 | 10063 ft | 292 kts | 336° |
| 2026-05-06 20:10 | 48.90176 | 8.95038 | 10352 ft | 316 kts | 336° |
| 2026-05-06 20:10 | 48.92292 | 8.93784 | 10683 ft | 335 kts | 336° |
| 2026-05-06 20:11 | 48.94516 | 8.92593 | 11322 ft | 343 kts | 343° |
| 2026-05-06 20:11 | 48.96903 | 8.92029 | 12042 ft | 350 kts | 356° |
| 2026-05-06 20:11 | 48.99346 | 8.92189 | 12811 ft | 354 kts | 4° |
| 2026-05-06 20:11 | 49.01814 | 8.92538 | 13538 ft | 358 kts | 4° |
| 2026-05-06 20:12 | 49.04312 | 8.92884 | 14188 ft | 362 kts | 4° |
| 2026-05-06 20:12 | 49.06830 | 8.93231 | 14810 ft | 365 kts | 4° |
| 2026-05-06 20:12 | 49.09370 | 8.93580 | 15427 ft | 369 kts | 4° |
| 2026-05-06 20:12 | 49.11939 | 8.93931 | 16081 ft | 372 kts | 4° |
| 2026-05-06 20:13 | 49.14521 | 8.94283 | 16725 ft | 375 kts | 4° |
| 2026-05-06 20:13 | 49.17138 | 8.94637 | 17341 ft | 379 kts | 4° |
| 2026-05-06 20:13 | 49.19777 | 8.94997 | 17953 ft | 383 kts | 5° |
| 2026-05-06 20:13 | 49.22446 | 8.95371 | 18468 ft | 387 kts | 5° |
| 2026-05-06 20:14 | 49.25149 | 8.95752 | 18967 ft | 391 kts | 5° |
| 2026-05-06 20:14 | 49.27868 | 8.96137 | 19522 ft | 394 kts | 5° |
| 2026-05-06 20:14 | 49.30609 | 8.96524 | 20056 ft | 397 kts | 5° |
| 2026-05-06 20:14 | 49.33368 | 8.96913 | 20558 ft | 400 kts | 5° |
| 2026-05-06 20:15 | 49.36107 | 8.97296 | 21089 ft | 402 kts | 5° |
| 2026-05-06 20:15 | 49.38901 | 8.97686 | 21587 ft | 405 kts | 5° |
| 2026-05-06 20:15 | 49.41719 | 8.98079 | 22079 ft | 408 kts | 5° |
| 2026-05-06 20:15 | 49.44557 | 8.98478 | 22573 ft | 411 kts | 5° |
| 2026-05-06 20:16 | 49.47416 | 8.98880 | 22815 ft | 413 kts | 5° |
| 2026-05-06 20:16 | 49.50251 | 8.99278 | 22855 ft | 406 kts | 5° |
| 2026-05-06 20:16 | 49.53054 | 8.99667 | 22851 ft | 404 kts | 5° |
| 2026-05-06 20:16 | 49.55890 | 9.00055 | 22851 ft | 403 kts | 5° |
| 2026-05-06 20:17 | 49.58653 | 9.00194 | 22859 ft | 403 kts | 356° |
| 2026-05-06 20:17 | 49.61418 | 8.99552 | 22852 ft | 401 kts | 345° |
| 2026-05-06 20:17 | 49.64041 | 8.98128 | 22853 ft | 400 kts | 334° |
| 2026-05-06 20:17 | 49.66439 | 8.95985 | 22857 ft | 398 kts | 323° |
| 2026-05-06 20:18 | 49.68698 | 8.93521 | 22854 ft | 398 kts | 323° |
| 2026-05-06 20:18 | 49.70962 | 8.91049 | 22855 ft | 398 kts | 323° |
| 2026-05-06 20:18 | 49.73223 | 8.88578 | 22851 ft | 398 kts | 323° |
| 2026-05-06 20:18 | 49.75485 | 8.86109 | 22849 ft | 398 kts | 323° |
| 2026-05-06 20:19 | 49.77748 | 8.83640 | 22848 ft | 398 kts | 323° |
| 2026-05-06 20:19 | 49.80010 | 8.81164 | 22845 ft | 398 kts | 323° |
| 2026-05-06 20:19 | 49.82265 | 8.78688 | 22847 ft | 398 kts | 323° |
| 2026-05-06 20:19 | 49.84522 | 8.76196 | 22845 ft | 398 kts | 323° |
| 2026-05-06 20:20 | 49.86773 | 8.73711 | 22845 ft | 398 kts | 323° |
| 2026-05-06 20:20 | 49.89028 | 8.71228 | 22847 ft | 398 kts | 323° |
| 2026-05-06 20:20 | 49.91285 | 8.68752 | 22849 ft | 398 kts | 323° |
| 2026-05-06 20:20 | 49.93544 | 8.66278 | 22855 ft | 397 kts | 323° |
| 2026-05-06 20:21 | 49.95043 | 8.64635 | 22856 ft | 397 kts | 323° |
| 2026-05-06 20:21 | 49.97301 | 8.62160 | 22856 ft | 397 kts | 323° |
| 2026-05-06 20:21 | 49.99558 | 8.59679 | 22856 ft | 397 kts | 323° |
| 2026-05-06 20:21 | 50.01810 | 8.57202 | 22856 ft | 397 kts | 323° |
| 2026-05-06 20:22 | 50.04084 | 8.54735 | 22852 ft | 397 kts | 327° |
| 2026-05-06 20:22 | 50.06531 | 8.52736 | 22853 ft | 398 kts | 337° |
| 2026-05-06 20:22 | 50.09141 | 8.51279 | 22851 ft | 399 kts | 340° |
| 2026-05-06 20:22 | 50.11765 | 8.49874 | 22853 ft | 399 kts | 340° |
| 2026-05-06 20:23 | 50.14396 | 8.48464 | 22848 ft | 399 kts | 340° |
| 2026-05-06 20:23 | 50.17011 | 8.47057 | 22851 ft | 398 kts | 340° |
| 2026-05-06 20:23 | 50.19653 | 8.45630 | 22511 ft | 406 kts | 340° |
| 2026-05-06 20:23 | 50.22314 | 8.44185 | 22015 ft | 401 kts | 340° |
| 2026-05-06 20:24 | 50.24930 | 8.42767 | 21540 ft | 396 kts | 340° |
| 2026-05-06 20:24 | 50.27522 | 8.41360 | 21010 ft | 392 kts | 339° |
| 2026-05-06 20:24 | 50.29989 | 8.39606 | 20388 ft | 385 kts | 328° |
| 2026-05-06 20:24 | 50.32207 | 8.37418 | 19889 ft | 369 kts | 326° |
| 2026-05-06 20:25 | 50.34333 | 8.35306 | 19439 ft | 355 kts | 326° |
| 2026-05-06 20:25 | 50.36379 | 8.33273 | 18994 ft | 342 kts | 325° |
| 2026-05-06 20:25 | 50.38351 | 8.31308 | 18590 ft | 333 kts | 324° |
| 2026-05-06 20:25 | 50.40302 | 8.29356 | 18166 ft | 333 kts | 324° |
| 2026-05-06 20:26 | 50.42252 | 8.27396 | 17706 ft | 332 kts | 324° |
| 2026-05-06 20:26 | 50.44164 | 8.25475 | 17291 ft | 330 kts | 324° |
| 2026-05-06 20:26 | 50.46100 | 8.23533 | 16867 ft | 329 kts | 324° |
| 2026-05-06 20:26 | 50.48022 | 8.21606 | 16467 ft | 327 kts | 324° |
| 2026-05-06 20:27 | 50.49944 | 8.19679 | 16058 ft | 327 kts | 324° |
| 2026-05-06 20:27 | 50.51857 | 8.17761 | 15661 ft | 326 kts | 324° |
| 2026-05-06 20:27 | 50.53769 | 8.15846 | 15252 ft | 326 kts | 324° |
| 2026-05-06 20:27 | 50.55680 | 8.13925 | 14843 ft | 325 kts | 324° |
| 2026-05-06 20:28 | 50.57584 | 8.12007 | 14433 ft | 325 kts | 324° |
| 2026-05-06 20:28 | 50.59490 | 8.10085 | 14023 ft | 326 kts | 324° |
| 2026-05-06 20:28 | 50.61399 | 8.08160 | 13580 ft | 326 kts | 324° |
| 2026-05-06 20:28 | 50.63311 | 8.06224 | 13129 ft | 326 kts | 324° |
| 2026-05-06 20:29 | 50.65213 | 8.04291 | 12692 ft | 324 kts | 324° |
| 2026-05-06 20:29 | 50.67107 | 8.02364 | 12252 ft | 323 kts | 324° |
| 2026-05-06 20:29 | 50.68990 | 8.00447 | 11814 ft | 322 kts | 325° |
| 2026-05-06 20:29 | 50.70868 | 7.98535 | 11370 ft | 321 kts | 325° |
| 2026-05-06 20:30 | 50.72702 | 7.96527 | 10926 ft | 319 kts | 316° |
| 2026-05-06 20:30 | 50.74832 | 7.90563 | 10044 ft | 319 kts | 280° |
| 2026-05-06 20:30 | 50.74830 | 7.87109 | 9850 ft | 311 kts | 263° |
| 2026-05-06 20:31 | 50.74523 | 7.83810 | 9827 ft | 297 kts | 263° |
| 2026-05-06 20:31 | 50.74233 | 7.80610 | 9514 ft | 293 kts | 263° |
| 2026-05-06 20:31 | 50.73949 | 7.77431 | 9176 ft | 291 kts | 264° |
| 2026-05-06 20:31 | 50.73668 | 7.74291 | 8854 ft | 287 kts | 263° |
| 2026-05-06 20:32 | 50.73395 | 7.71247 | 8535 ft | 273 kts | 263° |
| 2026-05-06 20:32 | 50.73133 | 7.68351 | 8227 ft | 260 kts | 263° |
| 2026-05-06 20:32 | 50.72883 | 7.65601 | 7833 ft | 253 kts | 264° |
| 2026-05-06 20:32 | 50.72636 | 7.62880 | 7427 ft | 247 kts | 264° |
| 2026-05-06 20:33 | 50.72396 | 7.60228 | 7036 ft | 242 kts | 264° |
| 2026-05-06 20:33 | 50.72158 | 7.57616 | 6641 ft | 238 kts | 264° |
| 2026-05-06 20:33 | 50.71922 | 7.55054 | 6250 ft | 234 kts | 264° |
| 2026-05-06 20:33 | 50.71690 | 7.52545 | 5831 ft | 229 kts | 263° |
| 2026-05-06 20:34 | 50.71463 | 7.50072 | 5421 ft | 226 kts | 264° |
| 2026-05-06 20:34 | 50.71240 | 7.47636 | 5015 ft | 223 kts | 264° |
| 2026-05-06 20:34 | 50.71016 | 7.45215 | 4594 ft | 223 kts | 264° |
| 2026-05-06 20:34 | 50.70793 | 7.42802 | 4175 ft | 222 kts | 264° |
| 2026-05-06 20:35 | 50.70662 | 7.40396 | 3754 ft | 218 kts | 277° |
| 2026-05-06 20:35 | 50.71024 | 7.38120 | 3349 ft | 212 kts | 298° |
| 2026-05-06 20:35 | 50.71865 | 7.36245 | 3043 ft | 207 kts | 317° |
| 2026-05-06 20:35 | 50.72904 | 7.34749 | 3052 ft | 202 kts | 319° |
| 2026-05-06 20:36 | 50.73923 | 7.33284 | 3059 ft | 200 kts | 319° |
| 2026-05-06 20:36 | 50.74949 | 7.31807 | 3053 ft | 198 kts | 319° |
| 2026-05-06 20:36 | 50.75966 | 7.30346 | 2907 ft | 198 kts | 319° |
| 2026-05-06 20:36 | 50.76978 | 7.28891 | 2661 ft | 194 kts | 319° |
| 2026-05-06 20:37 | 50.77932 | 7.27516 | 2408 ft | 178 kts | 319° |
| 2026-05-06 20:37 | 50.78803 | 7.26261 | 2204 ft | 159 kts | 319° |
| 2026-05-06 20:37 | 50.79571 | 7.25153 | 1975 ft | 141 kts | 320° |
| 2026-05-06 20:37 | 50.80280 | 7.24133 | 1789 ft | 135 kts | 320° |
| 2026-05-06 20:38 | 50.80964 | 7.23147 | 1607 ft | 132 kts | 320° |
| 2026-05-06 20:38 | 50.81648 | 7.22167 | 1421 ft | 133 kts | 319° |
| 2026-05-06 20:38 | 50.82332 | 7.21186 | 1228 ft | 133 kts | 319° |
| 2026-05-06 20:38 | 50.83018 | 7.20199 | 1049 ft | 133 kts | 319° |
| 2026-05-06 20:39 | 50.83700 | 7.19208 | 841 ft | 133 kts | 318° |
| 2026-05-06 20:39 | 50.84387 | 7.18206 | 637 ft | 135 kts | 317° |
| 2026-05-06 20:39 | 50.85078 | 7.17202 | 452 ft | 133 kts | 318° |
| 2026-05-06 20:39 | 50.85761 | 7.16214 | 338 ft | 132 kts | 316° |
| 2026-05-06 20:40 | 50.86403 | 7.15286 | 286 ft | 116 kts | 317° |
| 2026-05-06 20:40 | 50.86887 | 7.14587 | 261 ft | 70 kts | 317° |
| 2026-05-06 20:40 | 50.87121 | 7.14249 | 250 ft | 26 kts | 317° |
| 2026-05-06 20:40 | 50.87250 | 7.14034 | 244 ft | 28 kts | 306° |
| 2026-05-06 20:41 | 50.87311 | 7.13771 | 239 ft | 15 kts | 281° |
| 2026-05-06 20:41 | 50.87333 | 7.13588 | 235 ft | 19 kts | 280° |
| 2026-05-06 20:41 | 50.87400 | 7.13388 | 232 ft | 22 kts | 317° |
| 2026-05-06 20:41 | 50.87516 | 7.13221 | 233 ft | 23 kts | 317° |
| 2026-05-06 20:42 | 50.87636 | 7.13047 | 233 ft | 24 kts | 317° |
| 2026-05-06 20:42 | 50.87742 | 7.12892 | 233 ft | 19 kts | 317° |
| 2026-05-06 20:42 | 50.87785 | 7.12742 | 232 ft | 16 kts | 262° |
| 2026-05-06 20:42 | 50.87848 | 7.12613 | 234 ft | 17 kts | 346° |
| 2026-05-06 20:43 | 50.87944 | 7.12575 | 232 ft | 14 kts | 320° |
| 2026-05-06 20:43 | 50.87982 | 7.12487 | 232 ft | 9 kts | 259° |
| 2026-05-06 20:43 | 50.87963 | 7.12416 | 232 ft | 4 kts | 245° |
| 2026-05-06 20:43 | 50.87962 | 7.12414 | 232 ft | 0 kts | 245° |